Time;durP1;ratioP1;P1;durP2;ratioP2;P2;SDS_P1;SDS_P2;PMS_P1;PMS_P2;Temp;Humidity;BMP_temperature;BMP_pressure;BME280_temperature;BME280_humidity;BME280_pressure;Samples;Min_cycle;Max_cycle;Signal;HPM_P1;HPM_P2
2023/07/14 00:01:41;;;;;;;0.10;0.10;;;;;;;;;;5032836;28;20029;-84
2023/07/14 00:04:14;;;;;;;0.00;0.00;;;;;;;;;;5032711;28;20026;-84
2023/07/14 00:06:41;;;;;;;0.10;0.10;;;;;;;;;;5033578;28;20049;-84
2023/07/14 00:09:25;;;;;;;0.10;0.10;;;;;;;;;;5032753;28;20026;-84
2023/07/14 00:11:51;;;;;;;1.73;0.32;;;;;;;;;;5033080;28;20124;-84
2023/07/14 00:14:17;;;;;;;0.08;0.08;;;;;;;;;;5032589;28;20049;-85
2023/07/14 00:16:44;;;;;;;0.17;0.17;;;;;;;;;;5031332;28;20464;-84
2023/07/14 00:19:14;;;;;;;0.20;0.20;;;;;;;;;;5032778;28;20108;-84
2023/07/14 00:21:40;;;;;;;0.10;0.10;;;;;;;;;;5033102;28;20167;-84
2023/07/14 00:24:16;;;;;;;0.15;0.15;;;;;;;;;;5032294;28;20029;-84
2023/07/14 00:26:45;;;;;;;0.20;0.20;;;;;;;;;;5032571;28;20040;-84
2023/07/14 00:29:32;;;;;;;0.25;0.10;;;;;;;;;;5032835;28;20466;-84
2023/07/14 00:31:58;;;;;;;0.10;0.10;;;;;;;;;;5031850;28;20021;-84
2023/07/14 00:34:24;;;;;;;0.25;0.05;;;;;;;;;;5032583;28;20037;-84
2023/07/14 00:36:51;;;;;;;0.00;0.00;;;;;;;;;;5031434;28;20386;-84
2023/07/14 00:39:17;;;;;;;1.13;0.40;;;;;;;;;;5032557;28;20500;-84
2023/07/14 00:41:44;;;;;;;0.15;0.15;;;;;;;;;;5032143;28;20025;-83
2023/07/14 00:44:17;;;;;;;0.20;0.20;;;;;;;;;;5032583;28;20038;-83
2023/07/14 00:46:45;;;;;;;0.10;0.10;;;;;;;;;;5032005;28;20025;-84
2023/07/14 00:49:14;;;;;;;0.98;0.70;;;;;;;;;;5032164;28;20026;-84
2023/07/14 00:51:40;;;;;;;0.13;0.13;;;;;;;;;;5032296;28;20079;-84
2023/07/14 00:54:19;;;;;;;0.00;0.00;;;;;;;;;;5032039;28;20025;-84
2023/07/14 00:56:47;;;;;;;0.03;0.03;;;;;;;;;;5032134;28;20037;-84
2023/07/14 00:59:15;;;;;;;0.13;0.10;;;;;;;;;;5031925;28;20025;-84
2023/07/14 01:02:00;;;;;;;0.00;0.00;;;;;;;;;;5031986;28;20071;-83
2023/07/14 01:04:27;;;;;;;0.32;0.32;;;;;;;;;;5032396;28;20014;-83
2023/07/14 01:06:53;;;;;;;0.28;0.28;;;;;;;;;;5032086;28;20033;-84
2023/07/14 01:09:19;;;;;;;0.50;0.30;;;;;;;;;;5031998;28;20080;-84
2023/07/14 01:11:48;;;;;;;0.10;0.10;;;;;;;;;;5032617;28;20021;-84
2023/07/14 01:14:16;;;;;;;0.25;0.25;;;;;;;;;;5032426;28;20091;-84
2023/07/14 01:16:43;;;;;;;0.10;0.10;;;;;;;;;;5031519;28;20042;-84
2023/07/14 01:19:29;;;;;;;0.10;0.10;;;;;;;;;;5031955;28;20102;-83
2023/07/14 01:22:01;;;;;;;0.08;0.08;;;;;;;;;;5024279;28;20037;-84
2023/07/14 01:24:31;;;;;;;0.10;0.10;;;;;;;;;;5032437;28;20104;-84
2023/07/14 01:26:58;;;;;;;0.00;0.00;;;;;;;;;;5030465;28;20028;-84
2023/07/14 01:29:25;;;;;;;0.55;0.20;;;;;;;;;;5031895;28;20018;-84
2023/07/14 01:31:51;;;;;;;0.05;0.05;;;;;;;;;;5031297;28;20111;-83
2023/07/14 01:34:17;;;;;;;0.30;0.30;;;;;;;;;;5031801;28;20025;-84
2023/07/14 01:36:44;;;;;;;0.10;0.10;;;;;;;;;;5031617;28;20096;-84
2023/07/14 01:39:10;;;;;;;0.05;0.05;;;;;;;;;;5032145;28;20017;-83
2023/07/14 01:41:36;;;;;;;0.10;0.10;;;;;;;;;;5031827;28;20041;-84
2023/07/14 01:44:04;;;;;;;0.15;0.15;;;;;;;;;;5031610;28;20049;-84
2023/07/14 01:46:30;;;;;;;0.10;0.10;;;;;;;;;;5031273;28;20029;-84
2023/07/14 01:48:59;;;;;;;0.30;0.20;;;;;;;;;;5036594;28;20025;-84
2023/07/14 01:51:27;;;;;;;0.20;0.20;;;;;;;;;;5035155;28;21321;-84
2023/07/14 01:54:09;;;;;;;1.45;0.22;;;;;;;;;;5035410;28;20021;-84
2023/07/14 01:56:36;;;;;;;0.20;0.20;;;;;;;;;;5034569;28;20060;-83
2023/07/14 01:59:09;;;;;;;0.22;0.22;;;;;;;;;;5035088;28;20032;-84
2023/07/14 02:01:36;;;;;;;0.30;0.30;;;;;;;;;;5035316;28;20068;-83
2023/07/14 02:04:04;;;;;;;0.10;0.10;;;;;;;;;;5035307;28;20037;-84
2023/07/14 02:06:31;;;;;;;0.10;0.10;;;;;;;;;;5035815;28;20092;-83
2023/07/14 02:08:58;;;;;;;0.10;0.10;;;;;;;;;;5035551;28;20481;-84
2023/07/14 02:11:25;;;;;;;0.10;0.10;;;;;;;;;;5035025;28;20026;-84
2023/07/14 02:13:52;;;;;;;0.10;0.10;;;;;;;;;;5034835;28;20029;-84
2023/07/14 02:16:19;;;;;;;0.10;0.10;;;;;;;;;;5035091;28;20120;-84
2023/07/14 02:18:46;;;;;;;0.10;0.10;;;;;;;;;;5035226;28;20018;-83
2023/07/14 02:21:13;;;;;;;0.10;0.10;;;;;;;;;;5034745;28;20551;-83
2023/07/14 02:23:40;;;;;;;0.40;0.40;;;;;;;;;;5034654;28;20485;-84
2023/07/14 02:26:08;;;;;;;0.10;0.10;;;;;;;;;;5034845;28;20481;-84
2023/07/14 02:28:34;;;;;;;0.00;0.00;;;;;;;;;;5034830;28;20113;-84
2023/07/14 02:31:04;;;;;;;0.13;0.13;;;;;;;;;;5034593;28;20049;-84
2023/07/14 02:33:35;;;;;;;0.13;0.13;;;;;;;;;;5034825;28;20516;-84
2023/07/14 02:36:16;;;;;;;0.10;0.10;;;;;;;;;;5034652;28;20053;-84
2023/07/14 02:38:42;;;;;;;0.00;0.00;;;;;;;;;;5034742;28;20037;-84
2023/07/14 02:41:23;;;;;;;0.13;0.13;;;;;;;;;;5033151;28;20401;-83
2023/07/14 02:43:49;;;;;;;0.10;0.10;;;;;;;;;;5034132;28;20036;-84
2023/07/14 02:46:19;;;;;;;0.10;0.10;;;;;;;;;;5034489;28;20049;-84
2023/07/14 02:48:46;;;;;;;0.43;0.20;;;;;;;;;;5034763;28;20117;-83
2023/07/14 02:51:13;;;;;;;0.10;0.10;;;;;;;;;;5034398;28;20033;-84
2023/07/14 02:53:39;;;;;;;1.20;0.43;;;;;;;;;;5034280;28;20112;-84
2023/07/14 02:56:05;;;;;;;0.00;0.00;;;;;;;;;;5034368;28;20497;-84
2023/07/14 02:58:32;;;;;;;0.45;0.40;;;;;;;;;;5032838;28;20018;-84
2023/07/14 03:00:58;;;;;;;0.20;0.20;;;;;;;;;;5034245;28;20057;-84
2023/07/14 03:03:24;;;;;;;0.20;0.20;;;;;;;;;;5034441;28;20489;-84
2023/07/14 03:05:51;;;;;;;0.00;0.00;;;;;;;;;;5034260;28;20035;-83
2023/07/14 03:08:18;;;;;;;0.10;0.10;;;;;;;;;;5034148;28;20481;-84
2023/07/14 03:10:45;;;;;;;0.20;0.20;;;;;;;;;;5034094;28;20026;-84
2023/07/14 03:13:11;;;;;;;0.15;0.15;;;;;;;;;;5033794;28;20022;-84
2023/07/14 03:15:37;;;;;;;0.10;0.10;;;;;;;;;;5034432;28;20049;-84
2023/07/14 03:18:04;;;;;;;0.35;0.28;;;;;;;;;;5033914;28;20163;-83
2023/07/14 03:20:30;;;;;;;0.10;0.10;;;;;;;;;;5033991;28;20025;-84
2023/07/14 03:22:56;;;;;;;0.30;0.30;;;;;;;;;;5034037;28;20445;-84
2023/07/14 03:25:22;;;;;;;0.55;0.55;;;;;;;;;;5033784;28;20025;-84
2023/07/14 03:27:48;;;;;;;0.10;0.10;;;;;;;;;;5033994;28;20036;-84
2023/07/14 03:30:14;;;;;;;0.00;0.00;;;;;;;;;;5034185;28;20477;-84
2023/07/14 03:32:40;;;;;;;0.17;0.17;;;;;;;;;;5033444;28;20029;-84
2023/07/14 03:35:07;;;;;;;0.20;0.20;;;;;;;;;;5033797;28;20021;-84
2023/07/14 03:37:33;;;;;;;0.10;0.10;;;;;;;;;;5033623;28;20129;-83
2023/07/14 03:39:59;;;;;;;0.10;0.10;;;;;;;;;;5033468;28;20057;-84
2023/07/14 03:42:25;;;;;;;0.20;0.20;;;;;;;;;;5033383;28;20457;-83
2023/07/14 03:44:51;;;;;;;0.70;0.70;;;;;;;;;;5033486;28;20040;-84
2023/07/14 03:47:17;;;;;;;0.10;0.10;;;;;;;;;;5033234;28;20025;-83
2023/07/14 03:49:43;;;;;;;0.10;0.10;;;;;;;;;;5033509;28;20030;-84
2023/07/14 03:52:09;;;;;;;0.20;0.20;;;;;;;;;;5033331;28;20091;-83
2023/07/14 03:54:35;;;;;;;0.17;0.17;;;;;;;;;;5033175;28;20025;-84
2023/07/14 03:57:01;;;;;;;0.20;0.20;;;;;;;;;;5033147;28;20084;-84
2023/07/14 03:59:27;;;;;;;0.00;0.00;;;;;;;;;;5034170;28;20030;-83
2023/07/14 04:01:54;;;;;;;0.15;0.15;;;;;;;;;;5031618;28;20496;-83
2023/07/14 04:04:20;;;;;;;0.00;0.00;;;;;;;;;;5033111;28;20064;-84
2023/07/14 04:06:46;;;;;;;0.10;0.10;;;;;;;;;;5032977;28;20025;-83
2023/07/14 04:09:12;;;;;;;0.35;0.35;;;;;;;;;;5032925;28;20033;-83
2023/07/14 04:11:38;;;;;;;2.20;0.30;;;;;;;;;;5032791;28;20100;-83
2023/07/14 04:14:05;;;;;;;0.10;0.10;;;;;;;;;;5032910;28;20025;-84
2023/07/14 04:16:31;;;;;;;0.10;0.10;;;;;;;;;;5032541;28;20049;-84
2023/07/14 04:18:57;;;;;;;0.22;0.22;;;;;;;;;;5032810;28;20105;-83
2023/07/14 04:21:24;;;;;;;0.10;0.10;;;;;;;;;;5032774;28;20163;-86
2023/07/14 04:23:54;;;;;;;0.10;0.10;;;;;;;;;;5033053;28;20030;-86
2023/07/14 04:26:20;;;;;;;0.10;0.10;;;;;;;;;;5032669;28;20132;-85
2023/07/14 04:28:47;;;;;;;0.10;0.10;;;;;;;;;;5032690;28;20134;-85
2023/07/14 04:31:13;;;;;;;0.10;0.10;;;;;;;;;;5032353;28;20105;-85
2023/07/14 04:33:39;;;;;;;0.10;0.10;;;;;;;;;;5032542;28;20026;-85
2023/07/14 04:36:05;;;;;;;0.10;0.10;;;;;;;;;;5032930;28;20038;-85
2023/07/14 04:38:32;;;;;;;0.38;0.20;;;;;;;;;;5032164;28;20026;-85
2023/07/14 04:40:58;;;;;;;0.00;0.00;;;;;;;;;;5032463;28;20044;-85
2023/07/14 04:43:24;;;;;;;1.35;0.30;;;;;;;;;;5032372;28;20536;-84
2023/07/14 04:45:51;;;;;;;0.10;0.10;;;;;;;;;;5032197;28;20028;-85
2023/07/14 04:48:18;;;;;;;0.10;0.10;;;;;;;;;;5032327;28;20035;-85
2023/07/14 04:50:47;;;;;;;0.10;0.10;;;;;;;;;;5032184;28;20029;-84
2023/07/14 04:53:14;;;;;;;0.10;0.10;;;;;;;;;;5032117;28;20029;-85
2023/07/14 04:55:40;;;;;;;0.30;0.30;;;;;;;;;;5031137;28;20513;-85
2023/07/14 04:58:07;;;;;;;0.10;0.10;;;;;;;;;;5032253;28;20072;-84
2023/07/14 05:00:34;;;;;;;0.52;0.52;;;;;;;;;;5032294;28;20047;-84
2023/07/14 05:03:00;;;;;;;1.95;0.68;;;;;;;;;;5032110;28;20021;-84
2023/07/14 05:05:26;;;;;;;1.23;0.70;;;;;;;;;;5032153;28;20385;-84
2023/07/14 05:07:53;;;;;;;0.20;0.20;;;;;;;;;;5031716;28;20059;-84
2023/07/14 05:10:20;;;;;;;0.30;0.30;;;;;;;;;;5032730;28;20026;-84
2023/07/14 05:12:50;;;;;;;0.10;0.10;;;;;;;;;;5032065;28;20031;-84
2023/07/14 05:15:16;;;;;;;0.15;0.15;;;;;;;;;;5031622;28;20046;-84
2023/07/14 05:17:42;;;;;;;0.10;0.10;;;;;;;;;;5031966;28;20033;-84
2023/07/14 05:20:10;;;;;;;0.13;0.13;;;;;;;;;;5032348;28;20021;-84
2023/07/14 05:22:37;;;;;;;0.20;0.20;;;;;;;;;;5033135;28;20025;-84
2023/07/14 05:25:03;;;;;;;0.25;0.25;;;;;;;;;;5035904;28;20537;-84
2023/07/14 05:27:29;;;;;;;0.00;0.00;;;;;;;;;;5036056;28;20079;-84
2023/07/14 05:29:55;;;;;;;0.10;0.10;;;;;;;;;;5035594;28;20041;-84
2023/07/14 05:32:22;;;;;;;0.10;0.10;;;;;;;;;;5035921;28;20029;-84
2023/07/14 05:34:48;;;;;;;0.10;0.10;;;;;;;;;;5036323;28;20363;-84
2023/07/14 05:37:15;;;;;;;0.17;0.17;;;;;;;;;;5035797;28;20037;-84
2023/07/14 05:39:42;;;;;;;0.10;0.10;;;;;;;;;;5035756;28;20113;-84
2023/07/14 05:42:08;;;;;;;0.10;0.10;;;;;;;;;;5035722;28;20029;-84
2023/07/14 05:44:34;;;;;;;0.00;0.00;;;;;;;;;;5035396;28;20026;-84
2023/07/14 05:47:00;;;;;;;0.20;0.20;;;;;;;;;;5035482;28;20026;-84
2023/07/14 05:49:26;;;;;;;0.20;0.10;;;;;;;;;;5035522;28;20048;-84
2023/07/14 05:51:52;;;;;;;0.10;0.10;;;;;;;;;;5035171;28;20509;-84
2023/07/14 05:54:18;;;;;;;0.10;0.10;;;;;;;;;;5035514;28;20018;-84
2023/07/14 05:56:44;;;;;;;0.10;0.10;;;;;;;;;;5035126;28;20053;-84
2023/07/14 05:59:10;;;;;;;0.17;0.17;;;;;;;;;;5035590;28;20095;-85
2023/07/14 06:01:36;;;;;;;0.10;0.10;;;;;;;;;;5035408;28;20044;-85
2023/07/14 06:04:02;;;;;;;0.00;0.00;;;;;;;;;;5035324;28;20021;-84
2023/07/14 06:06:31;;;;;;;0.25;0.20;;;;;;;;;;5035478;28;20037;-84
2023/07/14 06:08:57;;;;;;;0.10;0.10;;;;;;;;;;5035156;28;20037;-85
2023/07/14 06:11:23;;;;;;;0.35;0.35;;;;;;;;;;5035031;28;20039;-84
2023/07/14 06:13:49;;;;;;;0.32;0.28;;;;;;;;;;5034991;28;20071;-84
2023/07/14 06:16:15;;;;;;;0.43;0.43;;;;;;;;;;5034903;28;20087;-84
2023/07/14 06:18:41;;;;;;;0.10;0.10;;;;;;;;;;5034922;28;20022;-84
2023/07/14 06:21:08;;;;;;;0.10;0.10;;;;;;;;;;5034746;28;20033;-84
2023/07/14 06:23:34;;;;;;;0.10;0.10;;;;;;;;;;5034857;28;20465;-84
2023/07/14 06:26:00;;;;;;;0.30;0.30;;;;;;;;;;5034683;28;20036;-84
2023/07/14 06:28:27;;;;;;;0.10;0.10;;;;;;;;;;5034970;28;20398;-85
2023/07/14 06:30:59;;;;;;;0.10;0.10;;;;;;;;;;5035118;28;20033;-84
2023/07/14 06:33:25;;;;;;;1.48;0.50;;;;;;;;;;5033709;28;20386;-84
2023/07/14 06:35:52;;;;;;;0.35;0.35;;;;;;;;;;5034429;28;20087;-84
2023/07/14 06:38:18;;;;;;;0.00;0.00;;;;;;;;;;5034667;28;20032;-84
2023/07/14 06:40:44;;;;;;;0.22;0.20;;;;;;;;;;5034383;28;20021;-84
2023/07/14 06:43:11;;;;;;;0.20;0.20;;;;;;;;;;5034605;28;20038;-83
2023/07/14 06:45:37;;;;;;;0.20;0.20;;;;;;;;;;5034483;28;20044;-84
2023/07/14 06:48:03;;;;;;;0.20;0.20;;;;;;;;;;5034853;28;20021;-84
2023/07/14 06:50:29;;;;;;;0.17;0.17;;;;;;;;;;5033809;28;20064;-84
2023/07/14 06:52:55;;;;;;;1.45;0.57;;;;;;;;;;5034297;28;20440;-84
2023/07/14 06:55:21;;;;;;;0.20;0.20;;;;;;;;;;5034202;28;20029;-84
2023/07/14 06:57:47;;;;;;;0.10;0.10;;;;;;;;;;5034210;28;20030;-84
2023/07/14 07:00:14;;;;;;;0.28;0.28;;;;;;;;;;5034097;28;20033;-84
2023/07/14 07:02:40;;;;;;;0.10;0.10;;;;;;;;;;5034057;28;20527;-84
2023/07/14 07:05:07;;;;;;;0.15;0.15;;;;;;;;;;5034297;28;20044;-84
2023/07/14 07:07:34;;;;;;;0.10;0.10;;;;;;;;;;5034305;28;20022;-84
2023/07/14 07:10:00;;;;;;;0.10;0.10;;;;;;;;;;5033751;28;20029;-84
2023/07/14 07:12:26;;;;;;;0.10;0.10;;;;;;;;;;5033845;28;20402;-84
2023/07/14 07:14:52;;;;;;;0.03;0.03;;;;;;;;;;5033659;28;20052;-84
2023/07/14 07:17:18;;;;;;;0.00;0.00;;;;;;;;;;5034029;28;20128;-85
2023/07/14 07:19:44;;;;;;;0.10;0.10;;;;;;;;;;5033477;28;20052;-84
2023/07/14 07:22:10;;;;;;;0.32;0.32;;;;;;;;;;5033668;28;20108;-84
2023/07/14 07:24:36;;;;;;;0.10;0.10;;;;;;;;;;5033486;28;20527;-84
2023/07/14 07:27:03;;;;;;;0.15;0.15;;;;;;;;;;5033537;28;20100;-84
2023/07/14 07:29:30;;;;;;;0.22;0.20;;;;;;;;;;5033579;28;20476;-84
2023/07/14 07:31:56;;;;;;;0.32;0.32;;;;;;;;;;5033516;28;20025;-85
2023/07/14 07:34:22;;;;;;;0.20;0.20;;;;;;;;;;5034012;28;20413;-84
2023/07/14 07:36:49;;;;;;;0.10;0.10;;;;;;;;;;5034276;28;20057;-84
2023/07/14 07:39:15;;;;;;;0.40;0.40;;;;;;;;;;5033555;28;20081;-84
2023/07/14 07:41:41;;;;;;;0.10;0.10;;;;;;;;;;5033574;28;20053;-84
2023/07/14 07:44:10;;;;;;;0.32;0.20;;;;;;;;;;5033277;28;20034;-83
2023/07/14 07:46:37;;;;;;;0.15;0.15;;;;;;;;;;5032746;28;20374;-84
2023/07/14 07:49:03;;;;;;;0.20;0.20;;;;;;;;;;5033356;28;20036;-83
2023/07/14 07:51:29;;;;;;;0.32;0.32;;;;;;;;;;5033083;28;20061;-84
2023/07/14 07:53:55;;;;;;;0.28;0.28;;;;;;;;;;5031861;28;20452;-84
2023/07/14 07:56:21;;;;;;;0.20;0.20;;;;;;;;;;5032778;28;20064;-84
2023/07/14 07:58:47;;;;;;;2.40;0.73;;;;;;;;;;5033387;28;20055;-84
2023/07/14 08:01:27;;;;;;;0.10;0.10;;;;;;;;;;5032892;28;20444;-84
2023/07/14 08:03:54;;;;;;;0.30;0.30;;;;;;;;;;5033271;28;20079;-84
2023/07/14 08:06:21;;;;;;;0.30;0.30;;;;;;;;;;5033807;28;20494;-84
2023/07/14 08:08:47;;;;;;;0.20;0.20;;;;;;;;;;5032776;28;20056;-84
2023/07/14 08:11:14;;;;;;;0.10;0.10;;;;;;;;;;5033369;28;20029;-84
2023/07/14 08:13:41;;;;;;;0.40;0.40;;;;;;;;;;5032704;28;20037;-85
2023/07/14 08:16:07;;;;;;;0.20;0.20;;;;;;;;;;5032414;28;20050;-84
2023/07/14 08:18:33;;;;;;;0.10;0.10;;;;;;;;;;5032648;28;20033;-84
2023/07/14 08:21:01;;;;;;;0.10;0.10;;;;;;;;;;5032557;28;20028;-84
2023/07/14 08:23:27;;;;;;;0.20;0.20;;;;;;;;;;5032456;28;20068;-84
2023/07/14 08:25:54;;;;;;;0.10;0.10;;;;;;;;;;5032531;28;20486;-84
2023/07/14 08:28:20;;;;;;;0.17;0.17;;;;;;;;;;5032916;28;20489;-84
2023/07/14 08:30:48;;;;;;;0.50;0.50;;;;;;;;;;5032127;28;20026;-84
2023/07/14 08:33:14;;;;;;;0.25;0.25;;;;;;;;;;5030932;28;20385;-84
2023/07/14 08:35:40;;;;;;;0.20;0.20;;;;;;;;;;5032387;28;20029;-84
2023/07/14 08:38:06;;;;;;;0.55;0.55;;;;;;;;;;5032813;28;20117;-84
2023/07/14 08:40:35;;;;;;;0.17;0.17;;;;;;;;;;5032490;28;20075;-83
2023/07/14 08:43:11;;;;;;;0.22;0.22;;;;;;;;;;5032204;28;20032;-84
2023/07/14 08:45:44;;;;;;;0.10;0.10;;;;;;;;;;5032421;28;20022;-84
2023/07/14 08:48:25;;;;;;;0.00;0.00;;;;;;;;;;5032358;28;20029;-84
2023/07/14 08:50:53;;;;;;;2.05;1.13;;;;;;;;;;5032313;28;20491;-84
2023/07/14 08:53:21;;;;;;;0.30;0.20;;;;;;;;;;5032237;28;20088;-84
2023/07/14 08:55:48;;;;;;;0.35;0.35;;;;;;;;;;5031930;28;20125;-84
2023/07/14 08:58:15;;;;;;;0.10;0.10;;;;;;;;;;5031536;28;20555;-84
2023/07/14 09:00:41;;;;;;;0.30;0.30;;;;;;;;;;5032285;28;20462;-84
2023/07/14 09:03:11;;;;;;;0.40;0.40;;;;;;;;;;5032066;28;20044;-84
2023/07/14 09:05:58;;;;;;;0.28;0.28;;;;;;;;;;5032031;28;20438;-84
2023/07/14 09:08:27;;;;;;;0.30;0.30;;;;;;;;;;5032121;28;20583;-84
2023/07/14 09:11:03;;;;;;;0.30;0.30;;;;;;;;;;5032165;28;20036;-84
2023/07/14 09:13:49;;;;;;;1.10;0.65;;;;;;;;;;5032279;28;20030;-84
2023/07/14 09:16:17;;;;;;;0.25;0.25;;;;;;;;;;5032064;28;20107;-83
2023/07/14 09:18:46;;;;;;;0.70;0.45;;;;;;;;;;5032238;28;20025;-84
2023/07/14 09:21:27;;;;;;;0.75;0.75;;;;;;;;;;5031815;28;20021;-84
2023/07/14 09:24:12;;;;;;;0.20;0.20;;;;;;;;;;5032101;28;20109;-84
2023/07/14 09:26:46;;;;;;;0.20;0.20;;;;;;;;;;5032446;28;20488;-84
2023/07/14 09:29:16;;;;;;;0.88;0.88;;;;;;;;;;5032444;28;20025;-84
2023/07/14 09:31:44;;;;;;;0.40;0.20;;;;;;;;;;5031706;28;20104;-84
2023/07/14 09:34:13;;;;;;;0.20;0.20;;;;;;;;;;5032099;28;20029;-84
2023/07/14 09:36:39;;;;;;;0.10;0.10;;;;;;;;;;5031711;28;20044;-84
2023/07/14 09:39:10;;;;;;;0.10;0.10;;;;;;;;;;5031770;28;20074;-84
2023/07/14 09:41:36;;;;;;;0.20;0.20;;;;;;;;;;5031836;28;20033;-84
2023/07/14 09:44:02;;;;;;;0.35;0.28;;;;;;;;;;5032202;28;20393;-84
2023/07/14 09:46:36;;;;;;;0.30;0.30;;;;;;;;;;5030363;28;20025;-84
2023/07/14 09:49:05;;;;;;;0.10;0.10;;;;;;;;;;5031517;28;20068;-84
2023/07/14 09:51:31;;;;;;;0.20;0.20;;;;;;;;;;5031799;28;20475;-84
2023/07/14 09:53:57;;;;;;;0.10;0.10;;;;;;;;;;5031569;28;20060;-84
2023/07/14 09:56:26;;;;;;;0.00;0.00;;;;;;;;;;5031495;28;20026;-84
2023/07/14 09:59:01;;;;;;;0.20;0.20;;;;;;;;;;5031515;28;20172;-84
2023/07/14 10:01:29;;;;;;;0.60;0.35;;;;;;;;;;5031336;28;20041;-84
2023/07/14 10:03:58;;;;;;;0.03;0.03;;;;;;;;;;5031393;28;20069;-84
2023/07/14 10:06:26;;;;;;;0.20;0.20;;;;;;;;;;5031930;28;20402;-84
2023/07/14 10:08:57;;;;;;;0.10;0.10;;;;;;;;;;5033584;28;20056;-84
2023/07/14 10:11:25;;;;;;;0.30;0.30;;;;;;;;;;5035215;28;20025;-84
2023/07/14 10:13:54;;;;;;;0.10;0.10;;;;;;;;;;5034579;28;20025;-84
2023/07/14 10:16:21;;;;;;;0.30;0.30;;;;;;;;;;5035383;28;20103;-84
2023/07/14 10:18:47;;;;;;;0.35;0.35;;;;;;;;;;5034863;28;20384;-84
2023/07/14 10:21:14;;;;;;;0.10;0.10;;;;;;;;;;5035047;28;20474;-84
2023/07/14 10:23:40;;;;;;;0.15;0.15;;;;;;;;;;5034651;28;20017;-84
2023/07/14 10:26:07;;;;;;;0.10;0.10;;;;;;;;;;5034771;28;20029;-84
2023/07/14 10:28:35;;;;;;;0.20;0.20;;;;;;;;;;5034603;28;20021;-84
2023/07/14 10:31:04;;;;;;;0.10;0.10;;;;;;;;;;5035249;28;20060;-84
2023/07/14 10:33:38;;;;;;;0.40;0.40;;;;;;;;;;5034782;28;20095;-84
2023/07/14 10:36:09;;;;;;;0.10;0.10;;;;;;;;;;5034730;28;20026;-84
2023/07/14 10:38:40;;;;;;;0.55;0.30;;;;;;;;;;5035047;28;20136;-84
2023/07/14 10:41:09;;;;;;;0.35;0.35;;;;;;;;;;5034353;28;20017;-84
2023/07/14 10:43:53;;;;;;;0.20;0.20;;;;;;;;;;5034303;28;20025;-84
2023/07/14 10:46:23;;;;;;;0.35;0.35;;;;;;;;;;5034144;28;20026;-84
2023/07/14 10:49:00;;;;;;;0.10;0.10;;;;;;;;;;5034233;28;20434;-84
2023/07/14 10:51:32;;;;;;;0.20;0.20;;;;;;;;;;5034434;28;20037;-84
2023/07/14 10:54:01;;;;;;;0.20;0.20;;;;;;;;;;5034156;28;20025;-84
2023/07/14 10:56:29;;;;;;;0.35;0.30;;;;;;;;;;5033720;28;20068;-84
2023/07/14 10:59:02;;;;;;;0.20;0.20;;;;;;;;;;5034179;28;20482;-84
2023/07/14 11:01:36;;;;;;;0.57;0.30;;;;;;;;;;5034847;28;20025;-83
2023/07/14 11:04:12;;;;;;;0.30;0.30;;;;;;;;;;5033984;28;20029;-84
2023/07/14 11:06:42;;;;;;;0.05;0.05;;;;;;;;;;5034193;28;20079;-84
2023/07/14 11:09:11;;;;;;;0.00;0.00;;;;;;;;;;5034104;28;20029;-84
2023/07/14 11:11:43;;;;;;;0.20;0.20;;;;;;;;;;5032147;28;20017;-85
2023/07/14 11:14:27;;;;;;;0.68;0.28;;;;;;;;;;5034067;28;20119;-85
2023/07/14 11:17:06;;;;;;;0.32;0.20;;;;;;;;;;5033993;28;20044;-84
2023/07/14 11:19:41;;;;;;;0.45;0.28;;;;;;;;;;5033310;28;20033;-84
2023/07/14 11:22:15;;;;;;;0.05;0.05;;;;;;;;;;5033554;28;20082;-84
2023/07/14 11:25:01;;;;;;;0.00;0.00;;;;;;;;;;5033538;28;20307;-84
2023/07/14 11:27:35;;;;;;;0.35;0.35;;;;;;;;;;5023108;28;20103;-84
2023/07/14 11:30:14;;;;;;;0.20;0.10;;;;;;;;;;5033505;28;20033;-84
2023/07/14 11:32:46;;;;;;;0.55;0.43;;;;;;;;;;5034182;28;20120;-84
2023/07/14 11:35:27;;;;;;;0.20;0.20;;;;;;;;;;5033447;28;20032;-83
2023/07/14 11:37:56;;;;;;;1.00;0.50;;;;;;;;;;5033499;28;20401;-84
2023/07/14 11:40:23;;;;;;;0.08;0.08;;;;;;;;;;5033063;28;20025;-84
2023/07/14 11:42:55;;;;;;;0.20;0.20;;;;;;;;;;5033728;28;20029;-84
2023/07/14 11:45:22;;;;;;;0.28;0.20;;;;;;;;;;5033222;28;20163;-83
2023/07/14 11:47:49;;;;;;;0.20;0.20;;;;;;;;;;5033085;28;20551;-84
2023/07/14 11:50:15;;;;;;;0.10;0.10;;;;;;;;;;5033000;28;20057;-84
2023/07/14 11:52:41;;;;;;;0.10;0.10;;;;;;;;;;5033132;28;20323;-84
2023/07/14 11:55:22;;;;;;;0.20;0.20;;;;;;;;;;5033128;28;20034;-84
2023/07/14 11:57:52;;;;;;;0.10;0.10;;;;;;;;;;5032794;28;20040;-85
2023/07/14 12:00:24;;;;;;;0.10;0.10;;;;;;;;;;5032962;28;20062;-84
2023/07/14 12:03:01;;;;;;;0.28;0.28;;;;;;;;;;5033072;28;20474;-85
2023/07/14 12:05:30;;;;;;;0.15;0.15;;;;;;;;;;5033079;28;20047;-84
2023/07/14 12:08:05;;;;;;;0.10;0.10;;;;;;;;;;5032547;28;20037;-85
2023/07/14 12:10:42;;;;;;;0.10;0.10;;;;;;;;;;5033068;28;20030;-84
2023/07/14 12:13:11;;;;;;;0.20;0.20;;;;;;;;;;5032730;28;20126;-84
2023/07/14 12:16:06;;;;;;;0.10;0.10;;;;;;;;;;5032397;28;20095;-84
2023/07/14 12:18:36;;;;;;;0.10;0.10;;;;;;;;;;5032897;28;20068;-84
2023/07/14 12:21:14;;;;;;;0.20;0.20;;;;;;;;;;5032624;28;20508;-84
2023/07/14 12:23:40;;;;;;;0.73;0.47;;;;;;;;;;5032598;28;20492;-84
2023/07/14 12:26:14;;;;;;;0.20;0.20;;;;;;;;;;5032898;28;20033;-84
2023/07/14 12:28:40;;;;;;;0.10;0.10;;;;;;;;;;5032711;28;20021;-84
2023/07/14 12:31:12;;;;;;;0.08;0.00;;;;;;;;;;5032340;28;20105;-84
2023/07/14 12:33:39;;;;;;;0.43;0.43;;;;;;;;;;5032198;28;20036;-84
2023/07/14 12:36:05;;;;;;;0.20;0.20;;;;;;;;;;5032462;28;20386;-85
2023/07/14 12:38:31;;;;;;;0.70;0.20;;;;;;;;;;5032289;28;20033;-84
2023/07/14 12:40:58;;;;;;;0.13;0.13;;;;;;;;;;5032765;28;20025;-84
2023/07/14 12:43:26;;;;;;;0.13;0.13;;;;;;;;;;5032393;28;20029;-85
2023/07/14 12:45:54;;;;;;;0.10;0.10;;;;;;;;;;5032072;28;20048;-84
2023/07/14 12:48:20;;;;;;;0.80;0.20;;;;;;;;;;5032442;28;20398;-84
2023/07/14 12:50:46;;;;;;;0.08;0.08;;;;;;;;;;5030946;28;20037;-85
2023/07/14 12:53:14;;;;;;;0.00;0.00;;;;;;;;;;5032322;28;20026;-85
2023/07/14 12:55:40;;;;;;;0.10;0.10;;;;;;;;;;5032293;28;20432;-85
2023/07/14 12:58:07;;;;;;;0.40;0.30;;;;;;;;;;5031867;28;20033;-85
2023/07/14 13:00:33;;;;;;;0.15;0.15;;;;;;;;;;5032425;28;20017;-85
2023/07/14 13:02:59;;;;;;;0.30;0.10;;;;;;;;;;5032257;28;20057;-85
2023/07/14 13:05:48;;;;;;;0.10;0.10;;;;;;;;;;5032318;28;20103;-84
2023/07/14 13:08:21;;;;;;;0.20;0.20;;;;;;;;;;5032311;28;20025;-84
2023/07/14 13:10:48;;;;;;;0.20;0.10;;;;;;;;;;5031876;28;20032;-84
2023/07/14 13:13:26;;;;;;;2.45;0.60;;;;;;;;;;5031799;28;20025;-84
2023/07/14 13:15:53;;;;;;;1.10;0.65;;;;;;;;;;5032017;28;20184;-85
2023/07/14 13:18:26;;;;;;;0.63;0.63;;;;;;;;;;5032263;28;20036;-84
2023/07/14 13:20:54;;;;;;;0.20;0.20;;;;;;;;;;5031511;28;20017;-84
2023/07/14 13:23:22;;;;;;;0.55;0.20;;;;;;;;;;5031700;28;20060;-84
2023/07/14 13:26:06;;;;;;;0.15;0.15;;;;;;;;;;5032100;28;20021;-84
2023/07/14 13:28:35;;;;;;;0.60;0.40;;;;;;;;;;5030473;28;20025;-84
2023/07/14 13:31:03;;;;;;;0.60;0.38;;;;;;;;;;5031754;28;20410;-84
2023/07/14 13:33:31;;;;;;;0.20;0.20;;;;;;;;;;5031888;28;20366;-84
2023/07/14 13:35:59;;;;;;;0.30;0.30;;;;;;;;;;5031680;28;20497;-85
2023/07/14 13:38:27;;;;;;;0.32;0.32;;;;;;;;;;5032068;28;20387;-84
2023/07/14 13:40:53;;;;;;;0.10;0.10;;;;;;;;;;5031967;28;20033;-84
2023/07/14 13:43:21;;;;;;;0.10;0.10;;;;;;;;;;5033062;28;20045;-84
2023/07/14 13:46:05;;;;;;;0.10;0.10;;;;;;;;;;5035484;28;20049;-84
2023/07/14 13:48:33;;;;;;;0.30;0.25;;;;;;;;;;5035664;28;20393;-84
2023/07/14 13:50:59;;;;;;;0.10;0.10;;;;;;;;;;5034806;28;20056;-84
2023/07/14 13:53:26;;;;;;;0.13;0.13;;;;;;;;;;5035559;28;20052;-84
2023/07/14 13:55:52;;;;;;;0.50;0.35;;;;;;;;;;5035585;28;20038;-84
2023/07/14 13:58:18;;;;;;;0.30;0.30;;;;;;;;;;5035360;28;20543;-84
2023/07/14 14:00:44;;;;;;;1.00;0.52;;;;;;;;;;5035333;28;20051;-84
2023/07/14 14:03:11;;;;;;;0.30;0.30;;;;;;;;;;5035702;28;20540;-84
2023/07/14 14:05:38;;;;;;;0.13;0.13;;;;;;;;;;5035135;28;20104;-84
2023/07/14 14:08:05;;;;;;;0.10;0.10;;;;;;;;;;5035407;28;20033;-84
2023/07/14 14:10:31;;;;;;;0.10;0.10;;;;;;;;;;5035460;28;20014;-84
2023/07/14 14:13:04;;;;;;;0.32;0.32;;;;;;;;;;5035255;28;20026;-84
2023/07/14 14:15:32;;;;;;;0.30;0.30;;;;;;;;;;5035335;28;20045;-84
2023/07/14 14:18:01;;;;;;;0.22;0.22;;;;;;;;;;5034975;28;20036;-84
2023/07/14 14:20:28;;;;;;;0.20;0.20;;;;;;;;;;5034586;28;20508;-85
2023/07/14 14:22:55;;;;;;;0.22;0.22;;;;;;;;;;5034824;28;20474;-84
2023/07/14 14:25:23;;;;;;;0.45;0.30;;;;;;;;;;5034818;28;20022;-84
2023/07/14 14:27:50;;;;;;;0.20;0.20;;;;;;;;;;5034764;28;20087;-84
2023/07/14 14:30:16;;;;;;;0.20;0.20;;;;;;;;;;5035823;28;20022;-84
2023/07/14 14:32:43;;;;;;;0.17;0.13;;;;;;;;;;5034833;28;20029;-84
2023/07/14 14:35:25;;;;;;;0.20;0.20;;;;;;;;;;5034328;28;20024;-84
2023/07/14 14:37:52;;;;;;;0.22;0.22;;;;;;;;;;5034664;28;20125;-84
2023/07/14 14:40:18;;;;;;;0.60;0.57;;;;;;;;;;5035036;28;20104;-84
2023/07/14 14:42:45;;;;;;;0.10;0.10;;;;;;;;;;5034594;28;20068;-84
2023/07/14 14:45:21;;;;;;;0.28;0.28;;;;;;;;;;5034468;28;20495;-84
2023/07/14 14:47:47;;;;;;;0.10;0.10;;;;;;;;;;5034101;28;20053;-84
2023/07/14 14:50:14;;;;;;;0.10;0.10;;;;;;;;;;5034259;28;20041;-84
2023/07/14 14:52:40;;;;;;;3.92;0.20;;;;;;;;;;5034306;28;20025;-84